Time;durP1;ratioP1;P1;durP2;ratioP2;P2;SDS_P1;SDS_P2;PMS_P1;PMS_P2;Temp;Humidity;BMP_temperature;BMP_pressure;BME280_temperature;BME280_humidity;BME280_pressure;Samples;Min_cycle;Max_cycle;Signal;HPM_P1;HPM_P2
2023/07/06 00:00:56;;;;;;;4.25;2.30;;;;;;;;;;5139045;27;20051;-78
2023/07/06 00:03:26;;;;;;;3.85;2.10;;;;;;;;;;5140847;27;20043;-79
2023/07/06 00:05:54;;;;;;;4.07;2.20;;;;;;;;;;5129691;27;20047;-79
2023/07/06 00:08:20;;;;;;;5.45;2.15;;;;;;;;;;5143652;27;20486;-78
2023/07/06 00:10:49;;;;;;;4.35;2.33;;;;;;;;;;5149601;27;20046;-79
2023/07/06 00:13:20;;;;;;;5.00;2.75;;;;;;;;;;5145994;27;20050;-79
2023/07/06 00:15:48;;;;;;;5.20;2.65;;;;;;;;;;5146281;27;20426;-79
2023/07/06 00:18:16;;;;;;;4.00;2.10;;;;;;;;;;5138437;27;20089;-79
2023/07/06 00:20:43;;;;;;;3.58;2.00;;;;;;;;;;5154006;27;20410;-78
2023/07/06 00:23:11;;;;;;;2.42;1.95;;;;;;;;;;5142920;27;20047;-79
2023/07/06 00:25:38;;;;;;;3.25;2.05;;;;;;;;;;5141331;27;20487;-80
2023/07/06 00:28:07;;;;;;;2.42;1.80;;;;;;;;;;5150006;27;20065;-79
2023/07/06 00:30:53;;;;;;;3.17;1.90;;;;;;;;;;5141880;27;20410;-80
2023/07/06 00:33:20;;;;;;;4.70;1.88;;;;;;;;;;5136897;27;20054;-80
2023/07/06 00:35:47;;;;;;;5.32;2.10;;;;;;;;;;5137212;27;20055;-78
2023/07/06 00:38:18;;;;;;;4.10;2.20;;;;;;;;;;5147449;27;20050;-78
2023/07/06 00:40:47;;;;;;;4.18;2.20;;;;;;;;;;5144177;27;20047;-79
2023/07/06 00:43:17;;;;;;;3.70;2.20;;;;;;;;;;5146679;27;20042;-78
2023/07/06 00:45:44;;;;;;;;;;;;;;;;;;5139360;27;21034;-79
2023/07/06 00:48:14;;;;;;;4.35;2.33;;;;;;;;;;5138063;27;19927;-79
2023/07/06 00:50:41;;;;;;;4.32;2.20;;;;;;;;;;5147323;27;20062;-78
2023/07/06 00:53:13;;;;;;;4.28;2.50;;;;;;;;;;5150408;27;20061;-78
2023/07/06 00:55:41;;;;;;;3.97;2.42;;;;;;;;;;5158442;27;20042;-78
2023/07/06 00:58:12;;;;;;;3.30;2.20;;;;;;;;;;5171429;27;20095;-78
2023/07/06 01:00:44;;;;;;;3.42;2.55;;;;;;;;;;5161156;27;20034;-78
2023/07/06 01:03:11;;;;;;;4.40;2.70;;;;;;;;;;5156119;27;20042;-79
2023/07/06 01:05:40;;;;;;;5.00;3.03;;;;;;;;;;5141614;27;20047;-78
2023/07/06 01:08:10;;;;;;;4.13;2.97;;;;;;;;;;5135012;27;20047;-80
2023/07/06 01:10:38;;;;;;;4.95;2.35;;;;;;;;;;5151590;27;20054;-80
2023/07/06 01:13:04;;;;;;;4.63;2.65;;;;;;;;;;5140170;27;20043;-79
2023/07/06 01:15:32;;;;;;;4.40;2.83;;;;;;;;;;5149975;27;20471;-80
2023/07/06 01:18:06;;;;;;;3.75;2.83;;;;;;;;;;5148217;27;20058;-80
2023/07/06 01:20:40;;;;;;;3.25;2.50;;;;;;;;;;5139223;27;20384;-79
2023/07/06 01:23:21;;;;;;;4.10;2.90;;;;;;;;;;5143152;27;20051;-78
2023/07/06 01:26:06;;;;;;;4.78;2.78;;;;;;;;;;5141088;27;20047;-80
2023/07/06 01:28:45;;;;;;;4.93;2.65;;;;;;;;;;5136771;27;20054;-79
2023/07/06 01:31:35;;;;;;;7.20;2.85;;;;;;;;;;5136755;27;20078;-79
2023/07/06 01:34:06;;;;;;;4.53;3.20;;;;;;;;;;5136578;27;20479;-79
2023/07/06 01:36:38;;;;;;;4.65;2.90;;;;;;;;;;5137808;27;20055;-79
2023/07/06 01:39:11;;;;;;;6.05;3.50;;;;;;;;;;5149519;27;20050;-79
2023/07/06 01:41:40;;;;;;;6.07;3.20;;;;;;;;;;5155959;27;20051;-79
2023/07/06 01:44:08;;;;;;;5.38;3.35;;;;;;;;;;5156806;27;20051;-80
2023/07/06 01:46:36;;;;;;;7.68;3.10;;;;;;;;;;5156797;27;20403;-79
2023/07/06 01:49:05;;;;;;;5.65;3.08;;;;;;;;;;5156116;27;20058;-80
2023/07/06 01:51:34;;;;;;;5.50;3.30;;;;;;;;;;5147003;27;20058;-80
2023/07/06 01:54:04;;;;;;;5.07;3.35;;;;;;;;;;5153972;27;20050;-80
2023/07/06 01:56:30;;;;;;;;;;;;;;;;;;5156418;27;20415;-80
2023/07/06 01:59:01;;;;;;;3.75;2.72;;;;;;;;;;5156000;27;19926;-79
2023/07/06 02:01:35;;;;;;;4.65;2.92;;;;;;;;;;5155795;27;20472;-80
2023/07/06 02:04:04;;;;;;;5.80;3.35;;;;;;;;;;5156278;27;20502;-79
2023/07/06 02:06:35;;;;;;;4.43;2.97;;;;;;;;;;5150019;27;20050;-79
2023/07/06 02:09:02;;;;;;;9.45;4.03;;;;;;;;;;5155316;27;20051;-79
2023/07/06 02:11:29;;;;;;;4.50;3.22;;;;;;;;;;5156516;27;20054;-79
2023/07/06 02:13:56;;;;;;;3.58;2.72;;;;;;;;;;5156804;27;20490;-79
2023/07/06 02:16:23;;;;;;;5.10;3.00;;;;;;;;;;5156384;27;20046;-80
2023/07/06 02:18:50;;;;;;;4.93;3.05;;;;;;;;;;5154810;27;20055;-80
2023/07/06 02:21:18;;;;;;;5.05;3.33;;;;;;;;;;5153234;27;20054;-79
2023/07/06 02:23:45;;;;;;;7.78;3.30;;;;;;;;;;5155295;27;20051;-79
2023/07/06 02:26:12;;;;;;;4.32;3.55;;;;;;;;;;5155406;27;20160;-79
2023/07/06 02:28:39;;;;;;;5.47;3.60;;;;;;;;;;5155465;27;20069;-79
2023/07/06 02:31:06;;;;;;;7.38;4.47;;;;;;;;;;5155383;27;20053;-79
2023/07/06 02:33:34;;;;;;;6.15;3.53;;;;;;;;;;5155177;27;20051;-78
2023/07/06 02:36:00;;;;;;;6.63;3.65;;;;;;;;;;5152861;27;20047;-79
2023/07/06 02:38:30;;;;;;;6.03;3.88;;;;;;;;;;5155220;27;20467;-79
2023/07/06 02:40:57;;;;;;;6.07;3.47;;;;;;;;;;5154951;27;20059;-79
2023/07/06 02:43:25;;;;;;;5.90;3.42;;;;;;;;;;5154005;27;20054;-79
2023/07/06 02:45:52;;;;;;;4.70;3.17;;;;;;;;;;5155395;27;20054;-80
2023/07/06 02:48:21;;;;;;;7.13;3.45;;;;;;;;;;5156952;27;20368;-75
2023/07/06 02:50:49;;;;;;;6.18;3.42;;;;;;;;;;5154078;27;20047;-75
2023/07/06 02:53:16;;;;;;;7.55;3.60;;;;;;;;;;5134085;27;20456;-75
2023/07/06 02:55:48;;;;;;;8.02;3.90;;;;;;;;;;5134254;27;20047;-75
2023/07/06 02:58:16;;;;;;;5.45;3.58;;;;;;;;;;5134348;27;20051;-76
2023/07/06 03:00:42;;;;;;;6.18;4.03;;;;;;;;;;5133644;27;20047;-75
2023/07/06 03:03:09;;;;;;;5.78;3.55;;;;;;;;;;5144522;27;20047;-75
2023/07/06 03:05:36;;;;;;;5.07;3.58;;;;;;;;;;5154737;27;20047;-75
2023/07/06 03:08:03;;;;;;;7.63;4.20;;;;;;;;;;5151987;27;20057;-75
2023/07/06 03:10:31;;;;;;;6.90;4.30;;;;;;;;;;5154744;27;20472;-75
2023/07/06 03:12:59;;;;;;;6.50;4.28;;;;;;;;;;5154353;27;20054;-75
2023/07/06 03:15:28;;;;;;;6.25;4.03;;;;;;;;;;5154167;27;20479;-75
2023/07/06 03:18:05;;;;;;;7.77;4.03;;;;;;;;;;5154150;27;20489;-75
2023/07/06 03:20:35;;;;;;;6.50;4.25;;;;;;;;;;5154086;27;20456;-76
2023/07/06 03:23:03;;;;;;;7.97;4.22;;;;;;;;;;5151169;27;20050;-75
2023/07/06 03:25:30;;;;;;;7.45;4.10;;;;;;;;;;5153887;27;20051;-75
2023/07/06 03:27:56;;;;;;;10.27;4.18;;;;;;;;;;5154194;27;20061;-76
2023/07/06 03:30:28;;;;;;;6.25;4.47;;;;;;;;;;5154358;27;20051;-75
2023/07/06 03:32:57;;;;;;;5.72;4.25;;;;;;;;;;5153822;27;20073;-75
2023/07/06 03:35:24;;;;;;;8.05;4.30;;;;;;;;;;5153447;27;20495;-76
2023/07/06 03:37:58;;;;;;;6.07;4.07;;;;;;;;;;5135204;27;20051;-76
2023/07/06 03:40:29;;;;;;;7.03;4.38;;;;;;;;;;5133166;27;20518;-76
2023/07/06 03:42:56;;;;;;;7.07;3.90;;;;;;;;;;5132327;27;20423;-76
2023/07/06 03:45:23;;;;;;;6.95;4.28;;;;;;;;;;5132381;28;20058;-75
2023/07/06 03:47:55;;;;;;;6.43;4.20;;;;;;;;;;5133743;28;20047;-75
2023/07/06 03:50:22;;;;;;;7.95;4.63;;;;;;;;;;5133551;28;20046;-76
2023/07/06 03:52:49;;;;;;;7.07;3.88;;;;;;;;;;5133720;27;20047;-75
2023/07/06 03:55:17;;;;;;;6.40;4.00;;;;;;;;;;5133819;28;20078;-75
2023/07/06 03:57:47;;;;;;;6.45;4.03;;;;;;;;;;5133017;28;20047;-75
2023/07/06 04:00:19;;;;;;;6.25;3.60;;;;;;;;;;5133752;28;20471;-75
2023/07/06 04:02:47;;;;;;;4.85;3.90;;;;;;;;;;5133349;28;20051;-76
2023/07/06 04:05:16;;;;;;;5.18;3.47;;;;;;;;;;5133500;27;20356;-76
2023/07/06 04:07:43;;;;;;;6.07;3.63;;;;;;;;;;5153598;27;20413;-76
2023/07/06 04:10:11;;;;;;;8.57;3.60;;;;;;;;;;5154106;27;20100;-76
2023/07/06 04:12:38;;;;;;;5.93;3.83;;;;;;;;;;5153849;27;20057;-76
2023/07/06 04:15:05;;;;;;;5.88;4.28;;;;;;;;;;5153999;27;20375;-76
2023/07/06 04:17:36;;;;;;;7.20;4.55;;;;;;;;;;5153623;27;20050;-76
2023/07/06 04:20:05;;;;;;;5.55;3.95;;;;;;;;;;5152394;27;20054;-76
2023/07/06 04:22:33;;;;;;;6.07;4.35;;;;;;;;;;5136018;27;20079;-78
2023/07/06 04:25:00;;;;;;;7.93;4.65;;;;;;;;;;5153992;27;20050;-80
2023/07/06 04:27:27;;;;;;;7.88;4.57;;;;;;;;;;5154144;27;20497;-80
2023/07/06 04:29:54;;;;;;;7.53;5.38;;;;;;;;;;5153926;27;20498;-80
2023/07/06 04:32:23;;;;;;;5.32;4.30;;;;;;;;;;5156343;27;20070;-80
2023/07/06 04:34:51;;;;;;;;;;;;;;;;;;5152302;27;20054;-80
2023/07/06 04:37:17;;;;;;;6.95;3.67;;;;;;;;;;5136607;27;19934;-79
2023/07/06 04:39:46;;;;;;;7.35;4.63;;;;;;;;;;5153166;27;20055;-80
2023/07/06 04:42:12;;;;;;;6.50;3.65;;;;;;;;;;5135916;27;20537;-80
2023/07/06 04:44:40;;;;;;;7.95;4.30;;;;;;;;;;5145397;27;20053;-80
2023/07/06 04:47:07;;;;;;;6.45;4.00;;;;;;;;;;5154171;27;20403;-80
2023/07/06 04:49:34;;;;;;;9.07;4.03;;;;;;;;;;5154129;27;20061;-80
2023/07/06 04:52:02;;;;;;;6.88;4.05;;;;;;;;;;5134495;27;20054;-79
2023/07/06 04:54:30;;;;;;;5.78;3.70;;;;;;;;;;5147273;27;20050;-80
2023/07/06 04:56:59;;;;;;;5.53;3.58;;;;;;;;;;5157207;27;20049;-79
2023/07/06 04:59:26;;;;;;;6.32;3.10;;;;;;;;;;5151875;27;20430;-80
2023/07/06 05:01:53;;;;;;;5.65;2.88;;;;;;;;;;5154887;27;20478;-80
2023/07/06 05:04:20;;;;;;;6.15;3.10;;;;;;;;;;5154509;27;20124;-80
2023/07/06 05:06:47;;;;;;;3.80;2.67;;;;;;;;;;5141313;27;20051;-79
2023/07/06 05:09:14;;;;;;;8.20;3.35;;;;;;;;;;5149766;27;20062;-80
2023/07/06 05:11:41;;;;;;;5.78;3.22;;;;;;;;;;5136560;27;20047;-80
2023/07/06 05:14:09;;;;;;;5.53;3.03;;;;;;;;;;5137538;27;20507;-79
2023/07/06 05:16:36;;;;;;;6.85;3.33;;;;;;;;;;5138668;27;20043;-80
2023/07/06 05:19:03;;;;;;;10.18;3.30;;;;;;;;;;5150785;27;20058;-79
2023/07/06 05:21:30;;;;;;;4.80;2.70;;;;;;;;;;5144543;27;20070;-80
2023/07/06 05:23:57;;;;;;;8.13;3.35;;;;;;;;;;5157343;27;20047;-79
2023/07/06 05:26:24;;;;;;;8.98;3.08;;;;;;;;;;5157541;27;20046;-79
2023/07/06 05:28:52;;;;;;;5.43;3.10;;;;;;;;;;5157260;27;20054;-80
2023/07/06 05:31:21;;;;;;;6.10;3.15;;;;;;;;;;5156928;27;20054;-78
2023/07/06 05:33:47;;;;;;;7.45;2.95;;;;;;;;;;5138875;27;20055;-80
2023/07/06 05:36:14;;;;;;;6.97;2.97;;;;;;;;;;5146375;27;20055;-79
2023/07/06 05:38:41;;;;;;;6.40;2.85;;;;;;;;;;5135716;27;20471;-79
2023/07/06 05:41:08;;;;;;;4.80;2.47;;;;;;;;;;5135265;27;20051;-79
2023/07/06 05:43:34;;;;;;;7.07;3.47;;;;;;;;;;5134982;27;20073;-79
2023/07/06 05:46:01;;;;;;;11.90;2.95;;;;;;;;;;5135674;27;20050;-79
2023/07/06 05:48:30;;;;;;;6.43;3.03;;;;;;;;;;5139645;27;20136;-78
2023/07/06 05:50:57;;;;;;;6.07;2.35;;;;;;;;;;5151325;27;20504;-78
2023/07/06 05:53:24;;;;;;;6.38;2.70;;;;;;;;;;5140507;27;20109;-80
2023/07/06 05:55:50;;;;;;;5.63;2.45;;;;;;;;;;5139622;27;20440;-78
2023/07/06 05:58:17;;;;;;;5.43;2.80;;;;;;;;;;5144229;27;20055;-79
2023/07/06 06:00:44;;;;;;;3.85;2.28;;;;;;;;;;5147261;27;20061;-80
2023/07/06 06:03:11;;;;;;;5.45;2.80;;;;;;;;;;5155089;27;20050;-80
2023/07/06 06:05:42;;;;;;;6.15;2.65;;;;;;;;;;5150288;27;20047;-80
2023/07/06 06:08:09;;;;;;;5.57;2.90;;;;;;;;;;5134999;27;20051;-79
2023/07/06 06:10:36;;;;;;;5.70;2.33;;;;;;;;;;5134747;27;20475;-79
2023/07/06 06:13:02;;;;;;;5.38;2.30;;;;;;;;;;5134567;27;20051;-79
2023/07/06 06:15:29;;;;;;;4.88;2.53;;;;;;;;;;5134940;27;20062;-81
2023/07/06 06:17:56;;;;;;;4.15;2.42;;;;;;;;;;5139572;27;20329;-81
2023/07/06 06:20:23;;;;;;;6.93;2.10;;;;;;;;;;5137709;27;20055;-80
2023/07/06 06:22:52;;;;;;;6.13;2.60;;;;;;;;;;5159538;27;20058;-80
2023/07/06 06:25:19;;;;;;;6.57;2.60;;;;;;;;;;5158926;27;20054;-79
2023/07/06 06:27:46;;;;;;;5.47;2.10;;;;;;;;;;5143046;27;20480;-80
2023/07/06 06:30:14;;;;;;;6.57;2.72;;;;;;;;;;5136251;27;20051;-80
2023/07/06 06:32:41;;;;;;;4.75;2.17;;;;;;;;;;5139413;27;20100;-81
2023/07/06 06:35:20;;;;;;;5.07;2.63;;;;;;;;;;5138902;27;20121;-80
2023/07/06 06:37:47;;;;;;;5.05;2.13;;;;;;;;;;5139513;27;20047;-81
2023/07/06 06:40:23;;;;;;;4.55;2.38;;;;;;;;;;5138067;27;20062;-80
2023/07/06 06:42:50;;;;;;;7.75;2.40;;;;;;;;;;5156197;27;20054;-80
2023/07/06 06:45:18;;;;;;;5.18;2.30;;;;;;;;;;5155172;27;20062;-79
2023/07/06 06:47:45;;;;;;;4.38;2.35;;;;;;;;;;5156920;27;20213;-80
2023/07/06 06:50:13;;;;;;;4.32;2.05;;;;;;;;;;5153450;27;20055;-79
2023/07/06 06:52:40;;;;;;;4.63;2.20;;;;;;;;;;5135276;27;20058;-80
2023/07/06 06:55:08;;;;;;;5.78;2.00;;;;;;;;;;5133462;27;20047;-80
2023/07/06 06:57:36;;;;;;;6.00;2.30;;;;;;;;;;5134036;27;20400;-80
2023/07/06 07:00:06;;;;;;;4.75;2.38;;;;;;;;;;5133943;27;20486;-80
2023/07/06 07:02:32;;;;;;;5.85;1.95;;;;;;;;;;5133753;27;20405;-80
2023/07/06 07:05:00;;;;;;;4.38;2.00;;;;;;;;;;5133535;27;20055;-79
2023/07/06 07:07:27;;;;;;;5.95;2.05;;;;;;;;;;5134246;27;20387;-80
2023/07/06 07:09:54;;;;;;;3.78;2.13;;;;;;;;;;5133890;27;20047;-80
2023/07/06 07:12:21;;;;;;;4.57;2.17;;;;;;;;;;5133509;27;20055;-80
2023/07/06 07:14:49;;;;;;;4.75;2.20;;;;;;;;;;5133541;27;20058;-80
2023/07/06 07:17:16;;;;;;;5.45;2.40;;;;;;;;;;5148107;27;20059;-80
2023/07/06 07:19:43;;;;;;;6.65;2.38;;;;;;;;;;5153977;27;20055;-80
2023/07/06 07:22:10;;;;;;;3.75;2.15;;;;;;;;;;5139232;27;20050;-80
2023/07/06 07:24:36;;;;;;;4.72;1.80;;;;;;;;;;5133754;27;20480;-80
2023/07/06 07:27:04;;;;;;;5.38;1.95;;;;;;;;;;5146504;27;20053;-80
2023/07/06 07:29:32;;;;;;;5.43;2.13;;;;;;;;;;5154168;27;20415;-80
2023/07/06 07:32:02;;;;;;;3.67;1.67;;;;;;;;;;5153579;27;20054;-80
2023/07/06 07:34:28;;;;;;;4.30;1.80;;;;;;;;;;5153977;27;20415;-79
2023/07/06 07:36:57;;;;;;;3.90;1.80;;;;;;;;;;5143066;27;20390;-80
2023/07/06 07:39:24;;;;;;;3.80;2.05;;;;;;;;;;5132913;27;20488;-79
2023/07/06 07:41:52;;;;;;;2.45;1.45;;;;;;;;;;5133308;28;20050;-80
2023/07/06 07:44:19;;;;;;;3.57;1.63;;;;;;;;;;5147337;27;20055;-80
2023/07/06 07:46:46;;;;;;;4.25;2.08;;;;;;;;;;5154098;27;20054;-80
2023/07/06 07:49:14;;;;;;;3.70;1.77;;;;;;;;;;5152744;27;20059;-80
2023/07/06 07:51:41;;;;;;;4.68;1.70;;;;;;;;;;5148285;27;20054;-80
2023/07/06 07:54:07;;;;;;;2.30;1.40;;;;;;;;;;5133009;28;20047;-79
2023/07/06 07:56:35;;;;;;;4.47;1.90;;;;;;;;;;5133200;28;20047;-79
2023/07/06 07:59:02;;;;;;;3.88;1.65;;;;;;;;;;5133179;28;20587;-80
2023/07/06 08:01:38;;;;;;;3.75;1.80;;;;;;;;;;5133370;28;20475;-81
2023/07/06 08:04:05;;;;;;;4.18;1.73;;;;;;;;;;5133048;28;20051;-83
2023/07/06 08:06:33;;;;;;;4.32;1.92;;;;;;;;;;5138097;27;20046;-81
2023/07/06 08:09:03;;;;;;;2.90;1.30;;;;;;;;;;5146207;27;20491;-79
2023/07/06 08:11:31;;;;;;;;;;;;;;;;;;5143432;27;20062;-79
2023/07/06 08:13:57;;;;;;;3.22;1.30;;;;;;;;;;5133968;27;19927;-80
2023/07/06 08:16:24;;;;;;;5.45;1.40;;;;;;;;;;5133043;28;20399;-80
2023/07/06 08:18:52;;;;;;;6.10;1.75;;;;;;;;;;5132277;28;20400;-80
2023/07/06 08:21:19;;;;;;;2.95;1.40;;;;;;;;;;5132732;27;20062;-79
2023/07/06 08:23:53;;;;;;;4.40;1.80;;;;;;;;;;5132740;28;20407;-80
2023/07/06 08:26:20;;;;;;;4.45;1.52;;;;;;;;;;5132557;28;20043;-80
2023/07/06 08:28:46;;;;;;;3.85;1.40;;;;;;;;;;5134103;27;20047;-81
2023/07/06 08:31:14;;;;;;;2.75;1.63;;;;;;;;;;5136976;27;20067;-81
2023/07/06 08:33:40;;;;;;;3.30;1.58;;;;;;;;;;5152685;27;20407;-81
2023/07/06 08:36:08;;;;;;;4.60;1.30;;;;;;;;;;5155188;27;20055;-80
2023/07/06 08:38:37;;;;;;;4.15;1.55;;;;;;;;;;5154918;27;20047;-80
2023/07/06 08:41:04;;;;;;;;;;;;;;;;;;5158055;27;20050;-81
2023/07/06 08:43:34;;;;;;;3.67;1.73;;;;;;;;;;5158167;27;19919;-81
2023/07/06 08:46:03;;;;;;;4.03;1.60;;;;;;;;;;5157903;27;20479;-81
2023/07/06 08:48:32;;;;;;;2.97;1.40;;;;;;;;;;5157752;27;20047;-80
2023/07/06 08:50:59;;;;;;;;;;;;;;;;;;5158421;27;20047;-80
2023/07/06 08:53:28;;;;;;;2.70;1.60;;;;;;;;;;5137915;27;20267;-81
2023/07/06 08:55:55;;;;;;;3.53;1.77;;;;;;;;;;5137276;27;20051;-81
2023/07/06 08:58:25;;;;;;;3.27;1.50;;;;;;;;;;5139317;27;20054;-83
2023/07/06 09:00:55;;;;;;;4.28;1.48;;;;;;;;;;5137395;27;20054;-80
2023/07/06 09:03:23;;;;;;;3.92;1.42;;;;;;;;;;5137051;27;20058;-81
2023/07/06 09:05:50;;;;;;;2.83;1.63;;;;;;;;;;5137024;27;20055;-80
2023/07/06 09:08:18;;;;;;;3.88;1.63;;;;;;;;;;5137222;27;20078;-81
2023/07/06 09:10:47;;;;;;;;;;;;;;;;;;5137546;27;20100;-81
2023/07/06 09:13:15;;;;;;;3.58;1.60;;;;;;;;;;5137744;27;20380;-80
2023/07/06 09:15:44;;;;;;;;;;;;;;;;;;5158392;27;20488;-80
2023/07/06 09:18:15;;;;;;;4.45;2.35;;;;;;;;;;5156613;27;19942;-81
2023/07/06 09:20:44;;;;;;;4.57;1.85;;;;;;;;;;5156536;27;20471;-81
2023/07/06 09:23:13;;;;;;;3.63;1.85;;;;;;;;;;5155076;27;20384;-80
2023/07/06 09:25:42;;;;;;;3.60;1.60;;;;;;;;;;5157180;27;20162;-79
2023/07/06 09:28:15;;;;;;;3.05;1.33;;;;;;;;;;5157096;27;20050;-80
2023/07/06 09:30:42;;;;;;;2.53;1.50;;;;;;;;;;5164457;27;20055;-80
2023/07/06 09:33:16;;;;;;;3.30;1.40;;;;;;;;;;5140441;27;20051;-79
2023/07/06 09:35:44;;;;;;;4.00;1.70;;;;;;;;;;5156146;27;20051;-80
2023/07/06 09:38:12;;;;;;;3.50;1.70;;;;;;;;;;5141437;27;20475;-80
2023/07/06 09:40:39;;;;;;;3.20;1.50;;;;;;;;;;5135242;27;20051;-80
2023/07/06 09:43:16;;;;;;;5.15;1.80;;;;;;;;;;5136422;27;20391;-79
2023/07/06 09:45:44;;;;;;;3.38;1.40;;;;;;;;;;5136411;27;20399;-80
2023/07/06 09:48:17;;;;;;;2.80;1.45;;;;;;;;;;5136493;27;20044;-80
2023/07/06 09:50:47;;;;;;;2.35;1.40;;;;;;;;;;5136075;27;20051;-79
2023/07/06 09:53:21;;;;;;;3.55;1.77;;;;;;;;;;5137003;27;20051;-80
2023/07/06 09:55:48;;;;;;;2.65;1.40;;;;;;;;;;5147846;27;20055;-80
2023/07/06 09:58:26;;;;;;;4.28;1.42;;;;;;;;;;5156995;27;20501;-79
2023/07/06 10:00:56;;;;;;;4.75;1.80;;;;;;;;;;5156839;27;20050;-79
2023/07/06 10:03:31;;;;;;;2.38;1.35;;;;;;;;;;5157312;27;20050;-80
2023/07/06 10:06:03;;;;;;;4.00;1.83;;;;;;;;;;5135993;27;20412;-79
2023/07/06 10:08:36;;;;;;;2.75;1.50;;;;;;;;;;5145439;27;20030;-79
2023/07/06 10:11:09;;;;;;;2.75;1.55;;;;;;;;;;5154473;27;20055;-79
2023/07/06 10:13:38;;;;;;;2.65;1.50;;;;;;;;;;5156752;27;20058;-80
2023/07/06 10:16:09;;;;;;;2.72;1.63;;;;;;;;;;5155653;27;20057;-81
2023/07/06 10:18:40;;;;;;;4.65;1.40;;;;;;;;;;5155903;27;20054;-81
2023/07/06 10:21:14;;;;;;;3.38;1.67;;;;;;;;;;5138561;27;20411;-80
2023/07/06 10:23:43;;;;;;;2.40;1.20;;;;;;;;;;5129791;27;20051;-80
2023/07/06 10:26:18;;;;;;;3.25;1.50;;;;;;;;;;5155544;27;20411;-80
2023/07/06 10:28:47;;;;;;;3.33;1.70;;;;;;;;;;5155629;27;20049;-80
2023/07/06 10:31:16;;;;;;;3.20;1.55;;;;;;;;;;5156031;27;20505;-79
2023/07/06 10:33:48;;;;;;;4.88;1.98;;;;;;;;;;5155735;27;20043;-80
2023/07/06 10:36:17;;;;;;;2.30;1.25;;;;;;;;;;5155833;27;20047;-79
2023/07/06 10:38:44;;;;;;;3.13;1.55;;;;;;;;;;5140144;27;20051;-80
2023/07/06 10:41:21;;;;;;;3.92;1.40;;;;;;;;;;5135018;27;20419;-79
2023/07/06 10:43:51;;;;;;;2.67;1.23;;;;;;;;;;5135105;27;20050;-80
2023/07/06 10:46:30;;;;;;;3.67;1.73;;;;;;;;;;5135004;27;20475;-79
2023/07/06 10:48:57;;;;;;;3.42;1.50;;;;;;;;;;5135017;27;20051;-80
2023/07/06 10:51:29;;;;;;;2.20;1.40;;;;;;;;;;5135021;27;20062;-79
2023/07/06 10:54:07;;;;;;;2.70;1.40;;;;;;;;;;5135259;27;20051;-80
2023/07/06 10:56:38;;;;;;;2.45;1.45;;;;;;;;;;5139953;27;20411;-79
2023/07/06 10:59:05;;;;;;;2.47;1.40;;;;;;;;;;5155605;27;20487;-81
2023/07/06 11:01:37;;;;;;;3.08;1.40;;;;;;;;;;5154124;27;20047;-78
2023/07/06 11:04:29;;;;;;;2.10;1.25;;;;;;;;;;5154796;27;20057;-79
2023/07/06 11:06:58;;;;;;;1.88;1.23;;;;;;;;;;5153716;27;20491;-78
2023/07/06 11:09:25;;;;;;;2.40;1.33;;;;;;;;;;5144985;27;20046;-80
2023/07/06 11:12:05;;;;;;;2.60;1.45;;;;;;;;;;5155170;27;20396;-79
2023/07/06 11:14:39;;;;;;;2.95;1.45;;;;;;;;;;5155685;27;20407;-80
2023/07/06 11:17:13;;;;;;;3.53;1.33;;;;;;;;;;5153739;27;20054;-79
2023/07/06 11:19:43;;;;;;;3.58;1.38;;;;;;;;;;5155106;27;20046;-80
2023/07/06 11:22:17;;;;;;;3.67;1.55;;;;;;;;;;5149329;27;20489;-80
2023/07/06 11:24:48;;;;;;;2.55;1.45;;;;;;;;;;5134282;27;20062;-80
2023/07/06 11:27:22;;;;;;;2.30;1.08;;;;;;;;;;5133398;27;20058;-80
2023/07/06 11:29:49;;;;;;;4.07;1.50;;;;;;;;;;5134738;27;20051;-80
2023/07/06 11:32:20;;;;;;;4.55;1.50;;;;;;;;;;5137612;27;20070;-80
2023/07/06 11:34:54;;;;;;;2.35;1.40;;;;;;;;;;5155017;27;20046;-80
2023/07/06 11:37:29;;;;;;;2.42;1.30;;;;;;;;;;5149706;27;20055;-80
2023/07/06 11:39:58;;;;;;;3.35;1.40;;;;;;;;;;5133556;27;20150;-80
2023/07/06 11:42:33;;;;;;;2.80;1.60;;;;;;;;;;5133395;28;20051;-80
2023/07/06 11:45:03;;;;;;;4.05;1.88;;;;;;;;;;5150628;27;20047;-80
2023/07/06 11:47:40;;;;;;;2.03;1.40;;;;;;;;;;5152440;27;20055;-80
2023/07/06 11:50:11;;;;;;;3.55;1.40;;;;;;;;;;5153305;27;20051;-79
2023/07/06 11:52:44;;;;;;;4.32;1.40;;;;;;;;;;5150672;27;20047;-80
2023/07/06 11:55:18;;;;;;;2.63;1.23;;;;;;;;;;5153653;27;20495;-80
2023/07/06 11:57:54;;;;;;;3.75;1.52;;;;;;;;;;5154447;27;20057;-80
2023/07/06 12:00:48;;;;;;;2.00;1.30;;;;;;;;;;5154322;27;20050;-80
2023/07/06 12:03:15;;;;;;;3.47;1.30;;;;;;;;;;5154721;27;20135;-80
2023/07/06 12:05:46;;;;;;;2.97;1.38;;;;;;;;;;5158787;27;20058;-80
2023/07/06 12:08:16;;;;;;;2.60;1.33;;;;;;;;;;5146374;27;20518;-79
2023/07/06 12:10:45;;;;;;;2.45;1.15;;;;;;;;;;5137615;27;20531;-80
2023/07/06 12:13:18;;;;;;;3.30;1.50;;;;;;;;;;5137240;27;20058;-79
2023/07/06 12:15:54;;;;;;;2.67;1.30;;;;;;;;;;5137600;27;20058;-79
2023/07/06 12:18:24;;;;;;;2.78;1.38;;;;;;;;;;5137047;27;20050;-79
2023/07/06 12:20:51;;;;;;;2.95;1.40;;;;;;;;;;5137233;27;20062;-79
2023/07/06 12:23:19;;;;;;;2.95;1.23;;;;;;;;;;5120514;27;20066;-79
2023/07/06 12:25:46;;;;;;;3.78;1.33;;;;;;;;;;5137272;27;20051;-79
2023/07/06 12:28:16;;;;;;;2.75;1.20;;;;;;;;;;5139873;27;20055;-79
2023/07/06 12:30:43;;;;;;;2.30;1.17;;;;;;;;;;5157535;27;20387;-79
2023/07/06 12:33:13;;;;;;;3.08;1.55;;;;;;;;;;5157828;27;20341;-79
2023/07/06 12:35:40;;;;;;;2.00;1.30;;;;;;;;;;5157527;27;20069;-80
2023/07/06 12:38:10;;;;;;;2.40;1.10;;;;;;;;;;5146548;27;20080;-83
2023/07/06 12:40:39;;;;;;;2.85;1.33;;;;;;;;;;5152414;27;20047;-80
2023/07/06 12:43:06;;;;;;;3.22;1.13;;;;;;;;;;5157726;27;20502;-80
2023/07/06 12:45:33;;;;;;;2.33;1.10;;;;;;;;;;5157892;27;20043;-80
2023/07/06 12:48:03;;;;;;;2.20;1.10;;;;;;;;;;5158276;27;20055;-80
2023/07/06 12:50:35;;;;;;;3.00;1.40;;;;;;;;;;5157516;27;20046;-80
2023/07/06 12:53:05;;;;;;;3.00;1.30;;;;;;;;;;5151130;27;20047;-81
2023/07/06 12:55:32;;;;;;;3.33;1.30;;;;;;;;;;5139172;27;20078;-81
2023/07/06 13:01:00;;;;;;;2.22;1.10;;;;;;;;;;5131895;27;20661;-61
2023/07/06 13:03:27;;;;;;;1.67;1.05;;;;;;;;;;5131816;28;20059;-61
2023/07/06 13:05:55;;;;;;;2.38;1.23;;;;;;;;;;5130492;28;20074;-61
2023/07/06 13:08:22;;;;;;;2.70;1.05;;;;;;;;;;5138156;27;20050;-62
2023/07/06 13:11:00;;;;;;;2.33;1.15;;;;;;;;;;5151013;27;20054;-61
2023/07/06 13:13:27;;;;;;;2.22;0.70;;;;;;;;;;5150994;27;20051;-62
2023/07/06 13:16:01;;;;;;;1.95;1.08;;;;;;;;;;5151017;27;20073;-61
2023/07/06 13:18:28;;;;;;;3.28;1.10;;;;;;;;;;5140139;27;20057;-61
2023/07/06 13:20:55;;;;;;;3.47;0.90;;;;;;;;;;5129974;28;20408;-61
2023/07/06 13:23:22;;;;;;;2.67;0.90;;;;;;;;;;5125554;28;20047;-61
2023/07/06 13:25:50;;;;;;;2.75;1.27;;;;;;;;;;5130091;28;20047;-62
2023/07/06 13:28:20;;;;;;;2.63;1.10;;;;;;;;;;5130037;28;20054;-61
2023/07/06 13:30:47;;;;;;;1.80;1.17;;;;;;;;;;5129742;28;20492;-61
2023/07/06 13:33:16;;;;;;;1.60;1.00;;;;;;;;;;5129980;28;20051;-61
2023/07/06 13:35:44;;;;;;;1.60;0.90;;;;;;;;;;5130078;28;20070;-61
2023/07/06 13:38:12;;;;;;;1.70;1.10;;;;;;;;;;5126303;28;20101;-62
2023/07/06 13:40:39;;;;;;;1.87;0.97;;;;;;;;;;5126346;28;20501;-61
2023/07/06 13:43:08;;;;;;;1.50;0.90;;;;;;;;;;5129678;28;20469;-61
2023/07/06 13:45:37;;;;;;;2.70;1.20;;;;;;;;;;5131568;28;20051;-61
2023/07/06 13:48:04;;;;;;;1.58;0.90;;;;;;;;;;5121147;28;20056;-61
2023/07/06 13:50:32;;;;;;;1.60;0.70;;;;;;;;;;5109584;28;20055;-61
2023/07/06 13:52:59;;;;;;;1.73;0.85;;;;;;;;;;5115812;28;20495;-62
2023/07/06 13:55:27;;;;;;;1.77;0.90;;;;;;;;;;5129298;28;20165;-62
2023/07/06 13:57:54;;;;;;;1.98;0.90;;;;;;;;;;5129421;28;20059;-61
2023/07/06 14:00:21;;;;;;;2.88;1.30;;;;;;;;;;5129188;27;20511;-61
2023/07/06 14:02:49;;;;;;;2.03;0.95;;;;;;;;;;5127567;28;20059;-61
2023/07/06 14:05:19;;;;;;;2.47;0.97;;;;;;;;;;5129489;28;20403;-61
2023/07/06 14:07:48;;;;;;;2.55;0.98;;;;;;;;;;5124612;28;20055;-61
2023/07/06 14:10:17;;;;;;;3.05;1.10;;;;;;;;;;5126998;28;20067;-61
2023/07/06 14:12:44;;;;;;;2.25;1.00;;;;;;;;;;5115492;28;20063;-61
2023/07/06 14:15:11;;;;;;;2.38;1.10;;;;;;;;;;5115526;28;20494;-61
2023/07/06 14:17:38;;;;;;;1.80;0.85;;;;;;;;;;5115423;28;20404;-61
2023/07/06 14:20:05;;;;;;;1.83;0.90;;;;;;;;;;5114944;28;20438;-61
2023/07/06 14:22:32;;;;;;;2.72;1.23;;;;;;;;;;5111077;28;20503;-61
2023/07/06 14:25:00;;;;;;;2.25;1.08;;;;;;;;;;5115140;28;20369;-61
2023/07/06 14:27:29;;;;;;;1.85;0.93;;;;;;;;;;5114970;28;20054;-61
2023/07/06 14:29:56;;;;;;;;;;;;;;;;;;5115720;28;20048;-61
2023/07/06 14:32:22;;;;;;;3.85;1.23;;;;;;;;;;5115245;28;19920;-61
2023/07/06 14:34:49;;;;;;;2.92;0.70;;;;;;;;;;5115513;28;20055;-62
2023/07/06 14:37:16;;;;;;;1.50;0.93;;;;;;;;;;5108348;28;20056;-60
2023/07/06 14:39:45;;;;;;;2.90;1.20;;;;;;;;;;5116279;28;20048;-60
2023/07/06 14:42:14;;;;;;;2.22;0.90;;;;;;;;;;5094520;28;20048;-60
2023/07/06 14:44:41;;;;;;;2.50;0.93;;;;;;;;;;5094353;28;20059;-60
2023/07/06 14:47:10;;;;;;;1.70;0.80;;;;;;;;;;5093975;28;20051;-61
2023/07/06 14:49:36;;;;;;;3.05;1.00;;;;;;;;;;5094222;28;20048;-62
2023/07/06 14:52:03;;;;;;;3.53;1.17;;;;;;;;;;5105532;28;20411;-63
2023/07/06 14:54:30;;;;;;;1.52;0.85;;;;;;;;;;5113288;28;20052;-62
2023/07/06 14:56:57;;;;;;;1.83;1.05;;;;;;;;;;5114402;28;20051;-62
2023/07/06 14:59:26;;;;;;;2.30;1.05;;;;;;;;;;5108022;28;20070;-60